createdAt,value
2022-08-02T00:00:40.433Z,4.60
2022-08-02T00:03:08.169Z,4.23
2022-08-02T00:05:35.832Z,3.10
2022-08-02T00:08:03.632Z,2.35
2022-08-02T00:10:31.269Z,5.00
2022-08-02T00:12:59.108Z,4.93
2022-08-02T00:15:27.379Z,4.25
2022-08-02T00:17:55.136Z,3.97
2022-08-02T00:20:23.148Z,4.57
2022-08-02T00:22:50.962Z,3.72
2022-08-02T00:25:18.665Z,5.95
2022-08-02T00:27:46.335Z,3.60
2022-08-02T00:30:14.203Z,6.18
2022-08-02T00:32:42.007Z,4.50
2022-08-02T00:35:10.120Z,2.45
2022-08-02T00:37:42.264Z,2.90
2022-08-02T00:40:10.811Z,4.95
2022-08-02T00:42:41.870Z,7.75
2022-08-02T00:45:09.915Z,1.67
2022-08-02T00:47:37.540Z,6.40
2022-08-02T00:50:05.920Z,3.50
2022-08-02T00:52:33.618Z,3.25
2022-08-02T00:55:01.276Z,5.43
2022-08-02T00:57:29.043Z,7.97
2022-08-02T00:59:56.671Z,3.20
2022-08-02T01:02:24.303Z,4.60
2022-08-02T01:04:51.964Z,4.82
2022-08-02T01:07:19.507Z,6.20
2022-08-02T01:09:47.221Z,4.68
2022-08-02T01:12:15.329Z,2.30
2022-08-02T01:14:46.314Z,3.25
2022-08-02T01:17:24.180Z,7.00
2022-08-02T01:20:00.401Z,4.30
2022-08-02T01:23:05.303Z,3.47
2022-08-02T01:26:03.793Z,2.70
2022-08-02T01:28:52.677Z,4.25
2022-08-02T01:31:50.938Z,2.45
2022-08-02T01:34:32.683Z,6.43
2022-08-02T01:37:21.747Z,5.78
2022-08-02T01:39:54.684Z,4.97
2022-08-02T01:42:23.993Z,7.65
2022-08-02T01:44:55.067Z,4.57
2022-08-02T01:47:28.604Z,10.40
2022-08-02T01:49:58.657Z,13.25
2022-08-02T01:52:29.808Z,6.55
2022-08-02T01:55:16.956Z,12.65
2022-08-02T01:57:53.982Z,8.90
2022-08-02T02:00:24.294Z,6.72
2022-08-02T02:02:55.688Z,6.85
2022-08-02T02:05:27.439Z,10.98
2022-08-02T02:07:58.563Z,13.85
2022-08-02T02:10:30.303Z,6.70
2022-08-02T02:13:02.896Z,7.38
2022-08-02T02:15:31.851Z,5.70
2022-08-02T02:20:42.678Z,9.35
2022-08-02T02:23:13.381Z,6.50
2022-08-02T02:25:46.517Z,13.43
2022-08-02T02:28:22.725Z,5.60
2022-08-02T02:30:55.336Z,15.52
2022-08-02T02:33:27.641Z,9.43
2022-08-02T02:35:59.520Z,8.60
2022-08-02T02:38:31.337Z,9.45
2022-08-02T02:41:06.793Z,9.68
2022-08-02T02:43:37.128Z,8.93
2022-08-02T02:46:06.654Z,8.48
2022-08-02T02:48:36.184Z,8.93
2022-08-02T02:51:05.763Z,5.57
2022-08-02T02:54:29.930Z,13.35
2022-08-02T02:56:25.315Z,9.40
2022-08-02T02:58:54.743Z,14.88
2022-08-02T03:01:55.401Z,12.68
2022-08-02T03:04:20.347Z,4.18
2022-08-02T03:06:48.147Z,6.20
2022-08-02T03:09:16.025Z,8.00
2022-08-02T03:11:43.853Z,7.82
2022-08-02T03:14:12.971Z,4.50
2022-08-02T03:16:45.623Z,3.55
2022-08-02T03:19:14.298Z,6.32
2022-08-02T03:21:43.698Z,4.20
2022-08-02T03:24:11.762Z,2.95
2022-08-02T03:26:39.754Z,8.00
2022-08-02T03:29:10.136Z,3.08
2022-08-02T03:31:43.882Z,5.95
2022-08-02T03:34:12.044Z,3.55
2022-08-02T03:36:41.530Z,3.80
2022-08-02T03:39:10.771Z,8.45
2022-08-02T03:41:39.210Z,11.85
2022-08-02T03:44:09.205Z,6.78
2022-08-02T03:46:39.728Z,8.32
2022-08-02T03:49:08.822Z,4.57
2022-08-02T03:51:37.246Z,5.70
2022-08-02T03:54:05.191Z,3.53
2022-08-02T03:56:34.107Z,6.70
2022-08-02T03:59:09.786Z,8.65
2022-08-02T04:01:38.159Z,8.02
2022-08-02T04:04:07.268Z,2.38
2022-08-02T04:06:35.473Z,4.95
2022-08-02T04:09:07.934Z,2.40
2022-08-02T04:11:37.919Z,4.32
2022-08-02T04:14:11.198Z,7.90
2022-08-02T04:16:43.656Z,2.50
2022-08-02T04:19:16.829Z,5.57
2022-08-02T04:21:52.268Z,2.55
2022-08-02T04:24:27.065Z,3.53
2022-08-02T04:27:06.436Z,2.75
2022-08-02T04:29:47.173Z,3.80
2022-08-02T04:32:17.223Z,4.88
2022-08-02T04:35:05.038Z,5.28
2022-08-02T04:37:35.120Z,2.13
2022-08-02T04:42:30.524Z,2.88
2022-08-02T04:44:58.577Z,6.00
2022-08-02T04:47:54.280Z,7.17
2022-08-02T04:50:14.058Z,5.95
2022-08-02T04:52:45.820Z,9.30
2022-08-02T04:55:13.682Z,1.70
2022-08-02T04:57:56.161Z,3.45
2022-08-02T05:00:24.818Z,3.47
2022-08-02T05:02:55.837Z,3.63
2022-08-02T05:05:23.705Z,2.67
2022-08-02T05:07:51.895Z,4.78
2022-08-02T05:10:20.196Z,10.70
2022-08-02T05:12:47.799Z,2.08
2022-08-02T05:15:18.364Z,5.05
2022-08-02T05:17:48.303Z,2.25
2022-08-02T05:20:17.902Z,4.60
2022-08-02T05:22:45.693Z,1.15
2022-08-02T05:25:14.592Z,5.78
2022-08-02T05:27:42.556Z,4.22
2022-08-02T05:30:11.119Z,2.80
2022-08-02T05:32:46.520Z,3.00
2022-08-02T05:35:17.715Z,2.10
2022-08-02T05:37:45.809Z,0.85
2022-08-02T05:40:16.259Z,3.05
2022-08-02T05:42:45.626Z,2.30
2022-08-02T05:45:13.459Z,1.25
2022-08-02T05:47:41.152Z,3.20
2022-08-02T05:50:09.888Z,0.75
2022-08-02T05:52:52.125Z,0.63
2022-08-02T05:55:39.174Z,1.02
2022-08-02T05:58:18.108Z,7.60
2022-08-02T06:00:49.572Z,1.60
2022-08-02T06:03:52.305Z,2.25
2022-08-02T06:06:23.508Z,1.02
2022-08-02T06:08:59.618Z,1.98
2022-08-02T06:11:40.148Z,4.68
2022-08-02T06:14:08.060Z,1.17
2022-08-02T06:16:42.102Z,1.55
2022-08-02T06:19:12.638Z,0.90
2022-08-02T06:22:32.746Z,3.85
2022-08-02T06:24:34.429Z,1.85
2022-08-02T06:27:03.098Z,2.22
2022-08-02T06:29:36.990Z,5.63
2022-08-02T06:32:07.770Z,1.90
2022-08-02T06:34:41.820Z,6.57
2022-08-02T06:37:27.452Z,1.45
2022-08-02T06:40:06.882Z,1.70
2022-08-02T06:43:04.896Z,6.05
2022-08-02T06:45:34.075Z,4.95
2022-08-02T06:48:01.987Z,1.23
2022-08-02T06:50:30.690Z,2.42
2022-08-02T06:52:58.352Z,4.30
2022-08-02T06:55:27.788Z,8.43
2022-08-02T06:57:55.451Z,1.73
2022-08-02T07:00:23.238Z,2.53
2022-08-02T07:02:51.179Z,2.83
2022-08-02T07:05:19.357Z,4.85
2022-08-02T07:07:47.009Z,7.67
2022-08-02T07:10:15.715Z,6.65
2022-08-02T07:12:43.454Z,4.28
2022-08-02T07:15:12.678Z,9.00
2022-08-02T07:17:40.365Z,4.53
2022-08-02T07:20:09.889Z,4.35
2022-08-02T07:22:37.651Z,4.22
2022-08-02T07:25:06.324Z,8.88
2022-08-02T07:27:34.365Z,5.40
2022-08-02T07:30:02.423Z,2.92
2022-08-02T07:32:32.008Z,3.40
2022-08-02T07:35:02.715Z,1.65
2022-08-02T07:37:55.256Z,1.20
2022-08-02T07:40:26.288Z,1.92
2022-08-02T07:45:36.064Z,3.83
2022-08-02T07:48:04.290Z,4.68
2022-08-02T07:50:31.947Z,4.85
2022-08-02T07:53:00.064Z,8.73
2022-08-02T07:55:39.283Z,6.00
2022-08-02T07:58:13.011Z,7.78
2022-08-02T08:00:45.110Z,7.88
2022-08-02T08:03:13.055Z,5.55
2022-08-02T08:05:40.969Z,9.67
2022-08-02T08:08:13.574Z,12.45
2022-08-02T08:10:44.262Z,4.88
2022-08-02T08:13:11.831Z,5.40
2022-08-02T08:15:39.547Z,7.95
2022-08-02T08:18:07.850Z,5.28
2022-08-02T08:20:36.035Z,10.95
2022-08-02T08:23:03.708Z,5.18
2022-08-02T08:25:31.561Z,10.60
2022-08-02T08:28:07.785Z,10.60
2022-08-02T08:30:35.908Z,8.23
2022-08-02T08:33:04.556Z,6.75
2022-08-02T08:35:32.142Z,7.32
2022-08-02T08:38:04.160Z,9.18
2022-08-02T08:40:35.742Z,7.75
2022-08-02T08:43:04.336Z,9.30
2022-08-02T08:45:32.030Z,3.92
2022-08-02T08:48:12.853Z,10.23
2022-08-02T08:50:51.238Z,14.90
2022-08-02T08:53:20.693Z,7.50
2022-08-02T08:55:49.588Z,4.65
2022-08-02T08:58:17.464Z,6.45
2022-08-02T09:00:46.956Z,9.57
2022-08-02T09:03:14.715Z,8.05
2022-08-02T09:05:43.372Z,5.95
2022-08-02T09:08:14.929Z,10.00
2022-08-02T09:10:45.799Z,4.47
2022-08-02T09:16:12.398Z,3.72
2022-08-02T09:18:47.343Z,6.90
2022-08-02T09:21:17.267Z,4.95
2022-08-02T09:23:48.177Z,5.05
2022-08-02T09:26:21.598Z,3.13
2022-08-02T09:28:52.372Z,6.18
2022-08-02T09:31:24.566Z,4.53
2022-08-02T09:33:58.182Z,5.35
2022-08-02T09:36:28.250Z,5.38
2022-08-02T09:38:58.261Z,4.68
2022-08-02T09:41:31.767Z,3.92
2022-08-02T09:44:04.522Z,5.50
2022-08-02T09:46:45.946Z,1.42
2022-08-02T09:49:17.071Z,3.97
2022-08-02T09:51:51.689Z,6.32
2022-08-02T09:54:29.731Z,1.63
2022-08-02T09:57:00.133Z,1.77
2022-08-02T09:59:29.344Z,2.10
2022-08-02T10:02:17.562Z,6.35
2022-08-02T10:04:53.518Z,1.15
2022-08-02T10:07:24.059Z,2.67
2022-08-02T10:09:52.457Z,5.57
2022-08-02T10:12:23.145Z,0.93
2022-08-02T10:14:52.094Z,1.00
2022-08-02T10:20:00.561Z,2.47
2022-08-02T10:22:33.651Z,1.77
2022-08-02T10:25:06.575Z,0.43
2022-08-02T10:27:55.480Z,1.25
2022-08-02T10:30:27.183Z,2.03
2022-08-02T10:32:57.822Z,1.30
2022-08-02T10:35:26.666Z,2.53
2022-08-02T10:38:01.516Z,1.65
2022-08-02T10:40:52.817Z,2.38
2022-08-02T10:43:44.655Z,1.08
2022-08-02T10:46:32.852Z,0.45
2022-08-02T10:52:08.076Z,1.58
2022-08-02T10:54:39.971Z,2.83
2022-08-02T10:57:22.868Z,0.57
2022-08-02T10:59:54.949Z,1.10
2022-08-02T11:02:38.750Z,2.10
2022-08-02T11:05:08.323Z,1.13
2022-08-02T11:07:49.462Z,0.17
2022-08-02T11:10:38.462Z,1.08
2022-08-02T11:16:11.855Z,0.50
2022-08-02T11:18:52.383Z,0.93
2022-08-02T11:21:34.314Z,2.38
2022-08-02T11:24:26.254Z,0.10
2022-08-02T11:26:54.077Z,1.05
2022-08-02T11:29:21.930Z,1.08
2022-08-02T11:31:49.893Z,1.00
2022-08-02T11:34:36.792Z,0.25
2022-08-02T11:37:06.251Z,0.88
2022-08-02T11:39:34.183Z,0.80
2022-08-02T11:42:02.112Z,0.87
2022-08-02T11:44:40.590Z,0.40
2022-08-02T11:47:08.645Z,2.17
2022-08-02T11:49:37.607Z,0.20
2022-08-02T11:52:06.999Z,0.20
2022-08-02T11:54:37.912Z,0.10
2022-08-02T11:57:20.115Z,0.63
2022-08-02T11:59:56.931Z,0.17
2022-08-02T12:02:31.733Z,0.68
2022-08-02T12:05:02.218Z,0.35
2022-08-02T12:07:36.572Z,2.10
2022-08-02T12:10:11.462Z,3.72
2022-08-02T12:12:56.697Z,0.20
2022-08-02T12:15:42.444Z,0.70
2022-08-02T12:18:36.746Z,0.32
2022-08-02T12:21:21.155Z,0.93
2022-08-02T12:23:59.397Z,0.40
2022-08-02T12:26:30.031Z,2.05
2022-08-02T12:28:59.456Z,0.28
2022-08-02T12:32:00.636Z,0.55
2022-08-02T12:34:32.592Z,1.00
2022-08-02T12:37:09.934Z,0.70
2022-08-02T12:39:50.010Z,1.35
2022-08-02T12:42:17.712Z,0.17
2022-08-02T12:44:52.804Z,0.22
2022-08-02T12:47:21.848Z,1.48
2022-08-02T12:52:36.001Z,2.97
2022-08-02T12:56:01.905Z,0.10
2022-08-02T12:58:17.744Z,1.50
2022-08-02T13:00:54.983Z,4.00
2022-08-02T13:04:09.995Z,3.33
2022-08-02T13:06:41.021Z,1.85
2022-08-02T13:09:00.135Z,0.13
2022-08-02T13:11:28.859Z,0.75
2022-08-02T13:13:56.537Z,0.10
2022-08-02T13:16:31.163Z,0.20
2022-08-02T13:18:59.547Z,0.55
2022-08-02T13:21:41.449Z,7.90
2022-08-02T13:24:23.247Z,0.37
2022-08-02T13:27:05.186Z,2.20
2022-08-02T13:29:38.414Z,4.85
2022-08-02T13:32:06.343Z,0.85
2022-08-02T13:34:34.131Z,0.47
2022-08-02T13:37:02.767Z,1.98
2022-08-02T13:39:30.915Z,1.92
2022-08-02T13:41:59.113Z,0.43
2022-08-02T13:44:26.752Z,0.22
2022-08-02T13:46:54.512Z,1.25
2022-08-02T13:49:49.442Z,4.15
2022-08-02T13:52:10.781Z,1.17
2022-08-02T13:54:38.542Z,4.15
2022-08-02T13:57:06.337Z,2.30
2022-08-02T13:59:56.600Z,0.80
2022-08-02T14:02:21.807Z,0.43
2022-08-02T14:04:49.462Z,0.45
2022-08-02T14:07:17.213Z,1.10
2022-08-02T14:09:44.967Z,1.88
2022-08-02T14:12:13.545Z,3.15
2022-08-02T14:17:08.962Z,1.77
2022-08-02T14:19:36.618Z,1.60
2022-08-02T14:22:10.748Z,0.30
2022-08-02T14:24:41.581Z,1.40
2022-08-02T14:27:10.438Z,1.13
2022-08-02T14:29:38.213Z,0.70
2022-08-02T14:32:06.684Z,0.60
2022-08-02T14:37:02.415Z,0.17
2022-08-02T14:39:43.420Z,0.57
2022-08-02T14:42:17.939Z,0.47
2022-08-02T14:44:45.581Z,0.75
2022-08-02T14:47:13.283Z,0.73
2022-08-02T14:49:42.860Z,1.70
2022-08-02T14:52:14.813Z,0.77
2022-08-02T14:54:43.298Z,0.40
2022-08-02T14:57:11.038Z,1.40
2022-08-02T14:59:42.209Z,2.95
2022-08-02T15:02:13.550Z,0.50
2022-08-02T15:04:42.921Z,2.05
2022-08-02T15:07:12.245Z,0.40
2022-08-02T15:12:09.733Z,0.67
2022-08-02T15:14:38.550Z,2.42
2022-08-02T15:19:56.973Z,0.47
2022-08-02T15:22:22.824Z,0.90
2022-08-02T15:24:50.671Z,0.30
2022-08-02T15:27:18.368Z,1.50
2022-08-02T15:29:46.802Z,2.20
2022-08-02T15:32:17.370Z,3.33
2022-08-02T15:34:46.863Z,1.65
2022-08-02T15:37:14.475Z,2.22
2022-08-02T15:39:42.386Z,0.50
2022-08-02T15:42:10.581Z,2.25
2022-08-02T15:44:38.607Z,0.65
2022-08-02T15:47:07.239Z,0.20
2022-08-02T15:49:39.338Z,0.57
2022-08-02T15:52:10.292Z,1.02
2022-08-02T15:54:38.338Z,0.55
2022-08-02T15:57:05.999Z,0.30
2022-08-02T15:59:33.747Z,2.13
2022-08-02T16:02:01.969Z,1.50
2022-08-02T16:04:29.949Z,2.42
2022-08-02T16:06:57.768Z,1.05
2022-08-02T16:09:29.499Z,0.30
2022-08-02T16:11:57.282Z,0.40
2022-08-02T16:14:25.201Z,0.90
2022-08-02T16:16:52.840Z,0.40
2022-08-02T16:19:47.039Z,1.65
2022-08-02T16:22:11.253Z,0.30
2022-08-02T16:24:39.468Z,1.45
2022-08-02T16:27:08.523Z,3.92
2022-08-02T16:29:37.592Z,1.02
2022-08-02T16:32:06.014Z,1.83
2022-08-02T16:34:50.709Z,0.95
2022-08-02T16:37:22.065Z,0.80
2022-08-02T16:39:49.638Z,1.23
2022-08-02T16:42:25.448Z,1.30
2022-08-02T16:44:54.833Z,0.82
2022-08-02T16:47:37.050Z,0.80
2022-08-02T16:50:11.090Z,0.60
2022-08-02T16:52:39.606Z,0.50
2022-08-02T16:55:09.942Z,0.57
2022-08-02T16:57:43.324Z,1.45
2022-08-02T17:00:14.282Z,2.60
2022-08-02T17:02:43.669Z,1.35
2022-08-02T17:05:14.447Z,0.95
2022-08-02T17:13:11.414Z,4.25
2022-08-02T17:16:07.606Z,0.70
2022-08-02T17:18:29.573Z,3.35
2022-08-02T17:20:58.046Z,2.92
2022-08-02T17:24:06.240Z,0.93
2022-08-02T17:26:16.712Z,2.17
2022-08-02T17:29:15.704Z,3.55
2022-08-02T17:31:42.387Z,0.73
2022-08-02T17:34:10.923Z,2.65
2022-08-02T17:36:39.100Z,0.77
2022-08-02T17:39:07.709Z,0.97
2022-08-02T17:41:37.749Z,0.80
2022-08-02T17:44:37.707Z,1.05
2022-08-02T17:47:06.651Z,2.65
2022-08-02T17:49:38.282Z,2.25
2022-08-02T17:52:49.148Z,2.83
2022-08-02T17:55:02.285Z,4.53
2022-08-02T17:57:55.724Z,1.63
2022-08-02T18:00:19.634Z,4.15
2022-08-02T18:02:52.633Z,2.47
2022-08-02T18:05:40.207Z,1.13
2022-08-02T18:08:13.202Z,2.67
2022-08-02T18:10:41.890Z,3.38
2022-08-02T18:13:09.592Z,1.98
2022-08-02T18:15:39.792Z,1.40
2022-08-02T18:18:08.051Z,3.10
2022-08-02T18:20:36.619Z,2.60
2022-08-02T18:23:05.488Z,4.13
2022-08-02T18:25:45.956Z,2.35
2022-08-02T18:28:14.781Z,1.50
2022-08-02T18:30:44.606Z,5.07
2022-08-02T18:33:58.786Z,1.33
2022-08-02T18:36:00.548Z,4.32
2022-08-02T18:38:30.361Z,3.95
2022-08-02T18:41:02.331Z,5.65
2022-08-02T18:43:36.413Z,4.50
2022-08-02T18:46:15.753Z,6.88
2022-08-02T18:48:46.411Z,3.78
2022-08-02T18:51:16.300Z,7.25
2022-08-02T18:53:51.301Z,7.10
2022-08-02T18:56:24.573Z,5.28
2022-08-02T18:58:56.294Z,5.07
2022-08-02T19:01:33.664Z,4.13
2022-08-02T19:04:05.247Z,2.90
2022-08-02T19:06:32.980Z,5.63
2022-08-02T19:09:11.212Z,2.47
2022-08-02T19:11:47.469Z,2.78
2022-08-02T19:14:19.015Z,3.40
2022-08-02T19:16:52.165Z,2.47
2022-08-02T19:19:20.609Z,1.77
2022-08-02T19:22:18.453Z,1.00
2022-08-02T19:24:37.112Z,0.77
2022-08-02T19:27:13.361Z,1.77
2022-08-02T19:29:48.352Z,1.63
2022-08-02T19:32:42.721Z,2.25
2022-08-02T19:35:19.766Z,1.10
2022-08-02T19:38:06.890Z,4.90
2022-08-02T19:40:34.992Z,1.15
2022-08-02T19:44:21.966Z,1.90
2022-08-02T19:45:51.556Z,2.67
2022-08-02T19:50:59.228Z,2.85
2022-08-02T19:53:47.211Z,4.63
2022-08-02T19:56:24.763Z,3.25
2022-08-02T19:58:55.120Z,7.13
2022-08-02T20:01:36.657Z,2.72
2022-08-02T20:04:13.464Z,5.55
2022-08-02T20:06:45.333Z,4.00
2022-08-02T20:09:16.210Z,3.80
2022-08-02T20:11:45.756Z,2.55
2022-08-02T20:14:13.578Z,4.38
2022-08-02T20:16:41.674Z,4.20
2022-08-02T20:19:09.624Z,2.75
2022-08-02T20:21:42.059Z,2.67
2022-08-02T20:24:12.830Z,3.72
2022-08-02T20:26:47.727Z,3.20
2022-08-02T20:29:42.420Z,2.00
2022-08-02T20:32:05.879Z,5.05
2022-08-02T20:34:36.809Z,3.55
2022-08-02T20:37:59.224Z,3.53
2022-08-02T20:39:53.960Z,3.60
2022-08-02T20:42:24.528Z,3.95
2022-08-02T20:44:55.857Z,3.30
2022-08-02T20:47:27.735Z,1.50
2022-08-02T20:50:30.471Z,3.30
2022-08-02T20:53:04.173Z,3.05
2022-08-02T20:55:32.991Z,6.38
2022-08-02T20:58:02.731Z,0.98
2022-08-02T21:00:32.063Z,1.48
2022-08-02T21:03:02.656Z,2.20
2022-08-02T21:05:43.549Z,1.08
2022-08-02T21:10:52.724Z,2.67
2022-08-02T21:13:22.328Z,1.30
2022-08-02T21:15:56.149Z,1.40
2022-08-02T21:18:33.266Z,1.73
2022-08-02T21:21:09.574Z,1.73
2022-08-02T21:23:38.009Z,1.38
2022-08-02T21:26:08.947Z,1.65
2022-08-02T21:28:43.592Z,4.47
2022-08-02T21:31:15.732Z,2.05
2022-08-02T21:33:57.796Z,11.88
2022-08-02T21:36:33.539Z,0.65
2022-08-02T21:39:04.897Z,0.70
2022-08-02T21:41:39.952Z,1.35
2022-08-02T21:44:19.355Z,1.65
2022-08-02T21:50:08.432Z,1.77
2022-08-02T21:52:25.974Z,0.85
2022-08-02T21:57:24.570Z,0.93
2022-08-02T21:59:55.546Z,0.30
2022-08-02T22:02:30.749Z,0.82
2022-08-02T22:04:58.832Z,1.58
2022-08-02T22:07:26.496Z,2.00
2022-08-02T22:09:55.343Z,0.68
2022-08-02T22:14:56.294Z,0.82
2022-08-02T22:17:51.123Z,1.02
2022-08-02T22:20:19.665Z,3.50
2022-08-02T22:22:51.188Z,2.67
2022-08-02T22:25:26.861Z,0.77
2022-08-02T22:28:38.566Z,0.22
2022-08-02T22:31:06.727Z,0.90
2022-08-02T22:34:01.169Z,0.40
2022-08-02T22:36:36.083Z,0.95
2022-08-02T22:39:19.017Z,0.73
2022-08-02T22:42:06.380Z,0.70
2022-08-02T22:44:36.003Z,0.60
2022-08-02T22:47:07.557Z,1.77
2022-08-02T22:49:51.594Z,0.68
2022-08-02T22:52:22.718Z,0.77
2022-08-02T22:54:51.921Z,0.90
2022-08-02T22:57:30.864Z,0.50
2022-08-02T22:58:49.322Z,0.77
2022-08-02T22:59:03.438Z,0.38
2022-08-02T23:00:00.576Z,0.15
2022-08-02T23:02:28.415Z,3.40
2022-08-02T23:04:58.249Z,0.40
2022-08-02T23:07:25.987Z,3.90
2022-08-02T23:09:54.663Z,4.63
2022-08-02T23:12:22.633Z,0.20
2022-08-02T23:14:51.697Z,0.52
2022-08-02T23:17:55.567Z,0.90
2022-08-02T23:20:24.827Z,0.45
2022-08-02T23:22:52.387Z,0.75
2022-08-02T23:25:23.861Z,0.60
2022-08-02T23:27:51.633Z,0.80
2022-08-02T23:30:20.518Z,1.20
2022-08-02T23:32:48.177Z,4.68
2022-08-02T23:35:16.737Z,1.08
2022-08-02T23:37:59.915Z,2.95
2022-08-02T23:40:40.653Z,0.73
2022-08-02T23:43:13.624Z,0.45
2022-08-02T23:45:44.713Z,0.35
2022-08-02T23:48:12.659Z,0.68
2022-08-02T23:50:42.924Z,2.50
2022-08-02T23:53:10.658Z,0.82
2022-08-02T23:55:38.356Z,2.92
2022-08-02T23:58:06.644Z,2.75
